createdAt,value
2022-10-12T00:00:34.763Z,39
2022-10-12T00:01:39.108Z,44
2022-10-12T00:02:43.368Z,55
2022-10-12T00:03:47.728Z,44
2022-10-12T00:04:52.360Z,43
2022-10-12T00:05:57.200Z,42
2022-10-12T00:07:06.616Z,41
2022-10-12T00:08:10.945Z,42
2022-10-12T00:09:15.136Z,50
2022-10-12T00:10:19.320Z,50
2022-10-12T00:11:24.375Z,61
2022-10-12T00:12:29.883Z,64
2022-10-12T00:13:34.176Z,58
2022-10-12T00:14:38.488Z,64
2022-10-12T00:15:42.867Z,64
2022-10-12T00:16:48.119Z,72
2022-10-12T00:17:53.151Z,65
2022-10-12T00:18:57.527Z,79
2022-10-12T00:20:02.132Z,76
2022-10-12T00:21:07.128Z,71
2022-10-12T00:22:14.353Z,70
2022-10-12T00:23:18.907Z,83
2022-10-12T00:24:23.504Z,81
2022-10-12T00:25:28.816Z,70
2022-10-12T00:26:33.524Z,74
2022-10-12T00:28:41.396Z,72
2022-10-12T00:29:45.501Z,76
2022-10-12T00:30:49.741Z,71
2022-10-12T00:31:53.935Z,73
2022-10-12T00:32:58.561Z,74
2022-10-12T00:34:03.181Z,74
2022-10-12T00:35:07.422Z,67
2022-10-12T00:36:12.139Z,65
2022-10-12T00:37:21.544Z,63
2022-10-12T00:38:26.175Z,73
2022-10-12T00:39:30.425Z,67
2022-10-12T00:40:35.044Z,57
2022-10-12T00:41:39.754Z,65
2022-10-12T00:42:43.952Z,54
2022-10-12T00:43:49.634Z,59
2022-10-12T00:44:53.047Z,69
2022-10-12T00:45:57.454Z,44
2022-10-12T00:47:02.080Z,52
2022-10-12T00:48:09.230Z,56
2022-10-12T00:49:13.630Z,50
2022-10-12T00:50:20.738Z,54
2022-10-12T00:51:25.038Z,49
2022-10-12T00:52:29.427Z,49
2022-10-12T00:53:33.807Z,50
2022-10-12T00:54:43.066Z,38
2022-10-12T00:55:47.655Z,45
2022-10-12T00:56:53.258Z,48
2022-10-12T00:57:57.655Z,39
2022-10-12T00:59:02.067Z,38
2022-10-12T01:00:06.471Z,39
2022-10-12T01:01:11.202Z,36
2022-10-12T01:02:15.371Z,46
2022-10-12T01:03:19.495Z,38
2022-10-12T01:04:23.843Z,45
2022-10-12T01:05:28.159Z,42
2022-10-12T01:06:32.504Z,25
2022-10-12T01:07:37.194Z,26
2022-10-12T01:08:41.322Z,44
2022-10-12T01:09:45.571Z,25
2022-10-12T01:10:50.160Z,37
2022-10-12T01:11:54.566Z,46
2022-10-12T01:12:59.527Z,44
2022-10-12T01:14:04.054Z,46
2022-10-12T01:15:08.663Z,32
2022-10-12T01:16:13.134Z,43
2022-10-12T01:17:17.570Z,41
2022-10-12T01:18:32.129Z,25
2022-10-12T01:19:44.307Z,31
2022-10-12T01:20:56.599Z,47
2022-10-12T01:22:05.874Z,47
2022-10-12T01:23:13.200Z,41
2022-10-12T01:24:27.743Z,27
2022-10-12T01:25:35.258Z,46
2022-10-12T01:26:49.814Z,40
2022-10-12T01:28:04.522Z,38
2022-10-12T01:29:19.187Z,41
2022-10-12T01:30:32.514Z,52
2022-10-12T01:31:36.925Z,55
2022-10-12T01:32:49.238Z,32
2022-10-12T01:34:01.464Z,39
2022-10-12T01:35:11.526Z,40
2022-10-12T01:36:18.778Z,28
2022-10-12T01:37:33.186Z,34
2022-10-12T01:38:48.170Z,33
2022-10-12T01:39:58.845Z,31
2022-10-12T01:41:03.266Z,36
2022-10-12T01:42:15.694Z,39
2022-10-12T01:43:26.123Z,41
2022-10-12T01:44:39.191Z,36
2022-10-12T01:45:39.962Z,41
2022-10-12T01:46:44.842Z,32
2022-10-12T01:47:49.326Z,28
2022-10-12T01:48:54.330Z,25
2022-10-12T01:49:59.053Z,46
2022-10-12T01:51:03.307Z,25
2022-10-12T01:52:07.771Z,25
2022-10-12T01:53:17.206Z,44
2022-10-12T01:54:26.418Z,43
2022-10-12T01:55:38.844Z,42
2022-10-12T01:56:48.314Z,27
2022-10-12T01:57:57.718Z,36
2022-10-12T01:59:07.158Z,27
2022-10-12T02:00:21.650Z,30
2022-10-12T02:01:26.158Z,38
2022-10-12T02:02:33.246Z,42
2022-10-12T02:03:40.231Z,45
2022-10-12T02:04:49.710Z,43
2022-10-12T02:05:54.052Z,47
2022-10-12T02:07:03.453Z,44
2022-10-12T02:08:08.034Z,43
2022-10-12T02:09:22.702Z,47
2022-10-12T02:10:30.287Z,37
2022-10-12T02:11:34.778Z,39
2022-10-12T02:12:39.390Z,48
2022-10-12T02:13:44.302Z,31
2022-10-12T02:14:53.750Z,47
2022-10-12T02:15:58.454Z,41
2022-10-12T02:17:02.870Z,42
2022-10-12T02:18:07.114Z,41
2022-10-12T02:19:11.752Z,45
2022-10-12T02:20:16.055Z,41
2022-10-12T02:21:20.358Z,40
2022-10-12T02:22:29.706Z,36
2022-10-12T02:23:34.003Z,38
2022-10-12T02:24:38.518Z,39
2022-10-12T02:25:43.126Z,35
2022-10-12T02:26:48.110Z,36
2022-10-12T02:27:52.842Z,41
2022-10-12T02:28:57.118Z,33
2022-10-12T02:30:01.390Z,33
2022-10-12T02:31:06.322Z,33
2022-10-12T02:32:18.762Z,37
2022-10-12T02:33:25.689Z,36
2022-10-12T02:34:29.926Z,37
2022-10-12T02:36:50.884Z,34
2022-10-12T02:38:03.222Z,30
2022-10-12T02:39:13.262Z,34
2022-10-12T02:41:36.343Z,29
2022-10-12T02:43:08.585Z,30
2022-10-12T02:43:56.247Z,30
2022-10-12T02:45:03.478Z,37
2022-10-12T02:46:08.139Z,37
2022-10-12T02:47:12.470Z,31
2022-10-12T02:48:17.371Z,30
2022-10-12T02:49:21.701Z,29
2022-10-12T02:50:26.418Z,28
2022-10-12T02:51:30.766Z,31
2022-10-12T02:52:35.377Z,31
2022-10-12T02:53:39.707Z,28
2022-10-12T02:54:44.245Z,26
2022-10-12T02:55:49.289Z,25
2022-10-12T02:56:53.785Z,26
2022-10-12T02:57:58.381Z,31
2022-10-12T02:59:03.003Z,27
2022-10-12T03:00:07.810Z,33
2022-10-12T03:01:13.025Z,37
2022-10-12T03:02:20.061Z,41
2022-10-12T03:03:24.559Z,42
2022-10-12T03:04:29.312Z,46
2022-10-12T03:05:33.795Z,44
2022-10-12T03:06:37.968Z,48
2022-10-12T03:07:42.391Z,39
2022-10-12T03:08:46.698Z,46
2022-10-12T03:09:50.986Z,44
2022-10-12T03:10:55.411Z,49
2022-10-12T03:12:03.194Z,51
2022-10-12T03:14:11.214Z,49
2022-10-12T03:16:19.006Z,49
2022-10-12T03:17:23.629Z,50
2022-10-12T03:18:28.354Z,55
2022-10-12T03:19:32.914Z,54
2022-10-12T03:20:37.150Z,53
2022-10-12T03:21:41.713Z,61
2022-10-12T03:22:46.865Z,61
2022-10-12T03:23:52.246Z,61
2022-10-12T03:24:56.606Z,57
2022-10-12T03:26:00.979Z,62
2022-10-12T03:27:05.903Z,58
2022-10-12T03:28:10.345Z,62
2022-10-12T03:29:14.592Z,67
2022-10-12T03:30:19.349Z,64
2022-10-12T03:31:23.692Z,73
2022-10-12T03:32:28.140Z,65
2022-10-12T03:33:33.116Z,65
2022-10-12T03:34:37.379Z,69
2022-10-12T03:35:42.103Z,64
2022-10-12T03:36:46.693Z,67
2022-10-12T03:37:51.142Z,58
2022-10-12T03:38:55.567Z,58
2022-10-12T03:39:59.887Z,57
2022-10-12T03:41:06.660Z,54
2022-10-12T03:42:08.575Z,57
2022-10-12T03:43:12.884Z,53
2022-10-12T03:44:17.236Z,101
2022-10-12T03:45:22.269Z,129
2022-10-12T03:46:26.887Z,147
2022-10-12T03:47:31.224Z,138
2022-10-12T03:48:35.927Z,121
2022-10-12T03:49:40.279Z,109
2022-10-12T03:50:44.765Z,103
2022-10-12T03:51:49.493Z,98
2022-10-12T03:52:54.369Z,87
2022-10-12T03:53:58.943Z,87
2022-10-12T03:55:03.415Z,74
2022-10-12T03:56:07.915Z,74
2022-10-12T03:57:12.319Z,71
2022-10-12T03:58:17.327Z,73
2022-10-12T03:59:22.023Z,66
2022-10-12T04:00:26.544Z,68
2022-10-12T04:01:31.263Z,64
2022-10-12T04:02:35.587Z,61
2022-10-12T04:03:40.283Z,62
2022-10-12T04:04:44.659Z,61
2022-10-12T04:05:49.082Z,61
2022-10-12T04:06:53.543Z,58
2022-10-12T04:07:58.171Z,51
2022-10-12T04:09:02.763Z,49
2022-10-12T04:10:07.644Z,46
2022-10-12T04:11:11.907Z,52
2022-10-12T04:12:16.243Z,47
2022-10-12T04:13:20.487Z,46
2022-10-12T04:14:24.743Z,49
2022-10-12T04:15:30.297Z,41
2022-10-12T04:16:34.541Z,45
2022-10-12T04:17:39.173Z,40
2022-10-12T04:18:43.174Z,43
2022-10-12T04:19:48.871Z,38
2022-10-12T04:20:53.514Z,37
2022-10-12T04:21:57.940Z,38
2022-10-12T04:23:02.212Z,39
2022-10-12T04:24:06.501Z,43
2022-10-12T04:25:10.932Z,36
2022-10-12T04:26:15.271Z,34
2022-10-12T04:27:19.883Z,38
2022-10-12T04:28:24.730Z,30
2022-10-12T04:29:29.224Z,30
2022-10-12T04:30:33.783Z,31
2022-10-12T04:31:38.163Z,34
2022-10-12T04:32:42.503Z,29
2022-10-12T04:33:46.783Z,26
2022-10-12T04:34:51.184Z,25
2022-10-12T04:35:56.317Z,30
2022-10-12T04:37:02.208Z,30
2022-10-12T04:38:06.745Z,28
2022-10-12T04:39:11.008Z,26
2022-10-12T04:40:15.759Z,29
2022-10-12T04:41:20.291Z,28
2022-10-12T04:42:24.791Z,34
2022-10-12T04:43:29.547Z,30
2022-10-12T04:44:34.085Z,31
2022-10-12T04:45:38.855Z,25
2022-10-12T04:47:47.187Z,26
2022-10-12T04:48:51.787Z,29
2022-10-12T04:49:56.169Z,27
2022-10-12T04:51:00.647Z,25
2022-10-12T04:52:05.179Z,27
2022-10-12T04:53:09.715Z,25
2022-10-12T04:54:13.917Z,31
2022-10-12T04:55:18.238Z,30
2022-10-12T04:56:22.581Z,27
2022-10-12T04:57:27.249Z,27
2022-10-12T04:58:31.921Z,33
2022-10-12T04:59:36.101Z,36
2022-10-12T05:00:40.421Z,25
2022-10-12T05:01:44.876Z,33
2022-10-12T05:02:49.208Z,31
2022-10-12T05:03:53.801Z,30
2022-10-12T05:05:02.537Z,26
2022-10-12T05:06:07.129Z,28
2022-10-12T05:07:11.445Z,33
2022-10-12T05:08:15.875Z,25
2022-10-12T05:09:20.093Z,30
2022-10-12T05:10:24.465Z,29
2022-10-12T05:11:29.625Z,29
2022-10-12T05:12:34.137Z,27
2022-10-12T05:13:38.486Z,34
2022-10-12T05:14:42.834Z,34
2022-10-12T05:15:47.086Z,31
2022-10-12T05:16:51.740Z,37
2022-10-12T05:17:56.557Z,29
2022-10-12T05:19:00.841Z,30
2022-10-12T05:20:05.205Z,36
2022-10-12T05:21:09.985Z,28
2022-10-12T05:22:14.401Z,27
2022-10-12T05:23:21.166Z,31
2022-10-12T05:24:25.893Z,30
2022-10-12T05:25:31.262Z,38
2022-10-12T05:26:35.666Z,36
2022-10-12T05:27:40.356Z,40
2022-10-12T05:28:44.397Z,36
2022-10-12T05:29:49.110Z,39
2022-10-12T05:30:55.002Z,44
2022-10-12T05:31:59.289Z,44
2022-10-12T05:33:03.578Z,43
2022-10-12T05:34:07.977Z,44
2022-10-12T05:35:12.233Z,49
2022-10-12T05:36:16.621Z,49
2022-10-12T05:37:20.906Z,49
2022-10-12T05:38:25.381Z,53
2022-10-12T05:39:30.057Z,54
2022-10-12T05:40:34.482Z,54
2022-10-12T05:41:38.866Z,60
2022-10-12T05:42:43.149Z,51
2022-10-12T05:43:47.356Z,56
2022-10-12T05:44:51.741Z,59
2022-10-12T05:45:56.138Z,53
2022-10-12T05:47:00.621Z,55
2022-10-12T05:48:04.987Z,52
2022-10-12T05:49:10.043Z,58
2022-10-12T05:50:14.260Z,55
2022-10-12T05:51:18.552Z,56
2022-10-12T05:52:22.797Z,59
2022-10-12T05:53:27.350Z,61
2022-10-12T05:54:31.595Z,61
2022-10-12T05:55:36.159Z,57
2022-10-12T05:56:40.387Z,58
2022-10-12T05:57:48.459Z,56
2022-10-12T05:58:49.755Z,56
2022-10-12T05:59:54.680Z,54
2022-10-12T06:00:58.915Z,55
2022-10-12T06:02:09.163Z,52
2022-10-12T06:03:18.562Z,53
2022-10-12T06:04:20.798Z,58
2022-10-12T06:05:25.176Z,46
2022-10-12T06:06:29.460Z,55
2022-10-12T06:07:33.769Z,54
2022-10-12T06:08:37.981Z,54
2022-10-12T06:09:42.468Z,50
2022-10-12T06:10:46.744Z,57
2022-10-12T06:11:51.743Z,57
2022-10-12T06:12:57.287Z,54
2022-10-12T06:14:01.531Z,57
2022-10-12T06:15:05.804Z,61
2022-10-12T06:16:10.807Z,61
2022-10-12T06:17:15.153Z,61
2022-10-12T06:18:19.724Z,61
2022-10-12T06:19:24.079Z,64
2022-10-12T06:20:28.702Z,68
2022-10-12T06:21:34.454Z,67
2022-10-12T06:22:38.567Z,70
2022-10-12T06:23:42.875Z,72
2022-10-12T06:24:47.154Z,74
2022-10-12T06:25:51.435Z,55
2022-10-12T06:26:55.702Z,78
2022-10-12T06:28:00.122Z,76
2022-10-12T06:29:04.319Z,62
2022-10-12T06:30:12.343Z,79
2022-10-12T06:31:16.619Z,58
2022-10-12T06:32:24.898Z,77
2022-10-12T06:33:30.935Z,61
2022-10-12T06:34:35.118Z,58
2022-10-12T06:35:39.550Z,74
2022-10-12T06:36:43.983Z,52
2022-10-12T06:37:50.213Z,72
2022-10-12T06:38:52.930Z,59
2022-10-12T06:41:01.102Z,57
2022-10-12T06:42:05.453Z,49
2022-10-12T06:43:09.823Z,56
2022-10-12T06:44:14.075Z,76
2022-10-12T06:45:18.330Z,72
2022-10-12T06:46:22.783Z,67
2022-10-12T06:47:27.335Z,77
2022-10-12T06:48:31.566Z,78
2022-10-12T06:49:35.899Z,70
2022-10-12T06:50:41.534Z,50
2022-10-12T06:51:45.812Z,59
2022-10-12T06:52:50.786Z,61
2022-10-12T06:53:55.043Z,61
2022-10-12T06:54:59.453Z,61
2022-10-12T06:56:03.695Z,83
2022-10-12T06:57:08.141Z,69
2022-10-12T06:58:12.382Z,71
2022-10-12T06:59:16.992Z,83
2022-10-12T07:00:21.759Z,84
2022-10-12T07:01:26.350Z,62
2022-10-12T07:02:30.830Z,60
2022-10-12T07:03:35.159Z,60
2022-10-12T07:04:40.150Z,60
2022-10-12T07:05:44.419Z,55
2022-10-12T07:06:49.441Z,53
2022-10-12T07:07:53.787Z,63
2022-10-12T07:08:58.318Z,68
2022-10-12T07:10:02.836Z,64
2022-10-12T07:12:10.556Z,67
2022-10-12T07:13:14.731Z,59
2022-10-12T07:14:19.020Z,53
2022-10-12T07:15:23.200Z,53
2022-10-12T07:16:27.374Z,53
2022-10-12T07:17:31.712Z,53
2022-10-12T07:18:35.951Z,53
2022-10-12T07:19:40.131Z,53
2022-10-12T07:20:44.423Z,53
2022-10-12T07:21:48.665Z,53
2022-10-12T07:22:52.841Z,53
2022-10-12T07:23:57.112Z,53
2022-10-12T07:25:01.996Z,53
2022-10-12T07:26:06.467Z,53
2022-10-12T07:27:10.776Z,53
2022-10-12T07:28:15.059Z,53
2022-10-12T07:29:19.385Z,44
2022-10-12T07:30:23.613Z,49
2022-10-12T07:31:28.045Z,40
2022-10-12T07:32:32.664Z,36
2022-10-12T07:33:37.196Z,30
2022-10-12T07:34:41.772Z,25
2022-10-12T07:36:10.477Z,32
2022-10-12T07:36:59.369Z,28
2022-10-12T07:39:04.235Z,27
2022-10-12T07:40:08.536Z,25
2022-10-12T07:41:12.921Z,26
2022-10-12T07:42:19.437Z,25
2022-10-12T07:43:21.603Z,30
2022-10-12T07:44:26.083Z,28
2022-10-12T07:45:30.522Z,30
2022-10-12T07:46:35.111Z,26
2022-10-12T07:48:49.080Z,35
2022-10-12T07:49:48.491Z,35
2022-10-12T07:50:52.777Z,34
2022-10-12T07:51:57.221Z,31
2022-10-12T07:53:01.740Z,25
2022-10-12T07:54:05.894Z,38
2022-10-12T07:55:10.684Z,28
2022-10-12T07:56:15.297Z,32
2022-10-12T07:57:19.733Z,29
2022-10-12T07:58:24.321Z,27
2022-10-12T07:59:28.605Z,25
2022-10-12T08:00:32.917Z,35
2022-10-12T08:01:37.885Z,28
2022-10-12T08:02:42.204Z,25
2022-10-12T08:03:46.494Z,29
2022-10-12T08:04:50.800Z,31
2022-10-12T08:05:55.102Z,28
2022-10-12T08:06:59.580Z,34
2022-10-12T08:08:04.110Z,27
2022-10-12T08:09:11.672Z,25
2022-10-12T08:10:16.038Z,25
2022-10-12T08:11:20.330Z,29
2022-10-12T08:12:27.708Z,31
2022-10-12T08:13:32.781Z,33
2022-10-12T08:14:38.000Z,32
2022-10-12T08:15:43.493Z,33
2022-10-12T08:16:51.529Z,27
2022-10-12T08:17:55.964Z,29
2022-10-12T08:19:00.379Z,25
2022-10-12T08:20:04.880Z,28
2022-10-12T08:21:09.766Z,31
2022-10-12T08:22:15.000Z,27
2022-10-12T08:23:19.397Z,31
2022-10-12T08:24:23.752Z,25
2022-10-12T08:25:28.232Z,25
2022-10-12T08:26:32.620Z,30
2022-10-12T08:27:37.740Z,25
2022-10-12T08:28:42.097Z,32
2022-10-12T08:29:46.424Z,31
2022-10-12T08:30:50.816Z,25
2022-10-12T08:31:55.144Z,25
2022-10-12T08:32:59.596Z,33
2022-10-12T08:34:03.840Z,35
2022-10-12T08:35:08.409Z,39
2022-10-12T08:36:12.569Z,32
2022-10-12T08:37:16.849Z,34
2022-10-12T08:38:21.096Z,40
2022-10-12T08:39:26.077Z,30
2022-10-12T08:40:30.504Z,27
2022-10-12T08:41:35.155Z,25
2022-10-12T08:42:44.596Z,33
2022-10-12T08:43:51.956Z,30
2022-10-12T08:45:04.020Z,25
2022-10-12T08:46:13.660Z,28
2022-10-12T08:47:18.052Z,28
2022-10-12T08:48:27.441Z,25
2022-10-12T08:49:31.904Z,35
2022-10-12T08:50:36.160Z,38
2022-10-12T08:51:43.420Z,28
2022-10-12T08:52:53.600Z,33
2022-10-12T08:56:41.625Z,33
2022-10-12T08:57:47.660Z,28
2022-10-12T08:58:49.672Z,28
2022-10-12T08:59:53.732Z,28
2022-10-12T09:00:57.701Z,35
2022-10-12T09:15:23.399Z,25
2022-10-12T09:18:20.024Z,30
2022-10-12T09:19:32.296Z,30
2022-10-12T09:20:36.588Z,30
2022-10-12T09:21:43.700Z,31
2022-10-12T09:23:12.841Z,36
2022-10-12T09:25:46.824Z,25
2022-10-12T09:26:51.000Z,47
2022-10-12T09:27:55.100Z,36
2022-10-12T09:28:59.342Z,29
2022-10-12T09:30:03.306Z,33
2022-10-12T09:31:08.007Z,25
2022-10-12T09:32:17.218Z,28
2022-10-12T09:33:21.451Z,32
2022-10-12T09:34:28.657Z,39
2022-10-12T09:35:32.772Z,39
2022-10-12T09:36:36.828Z,26
2022-10-12T09:37:41.085Z,32
2022-10-12T09:38:45.156Z,29
2022-10-12T09:39:49.424Z,29
2022-10-12T09:40:53.852Z,27
2022-10-12T09:41:58.491Z,37
2022-10-12T09:43:02.556Z,27
2022-10-12T09:44:06.684Z,30
2022-10-12T09:45:19.162Z,42
2022-10-12T09:46:23.637Z,28
2022-10-12T09:47:35.724Z,25
2022-10-12T09:48:47.996Z,29
2022-10-12T09:49:57.140Z,30
2022-10-12T09:52:14.711Z,34
2022-10-12T09:53:18.916Z,25
2022-10-12T09:54:47.179Z,28
2022-10-12T09:55:54.408Z,30
2022-10-12T09:57:06.799Z,35
2022-10-12T09:58:10.775Z,37
2022-10-12T09:59:14.967Z,36
2022-10-12T10:00:24.283Z,43
2022-10-12T10:01:31.562Z,31
2022-10-12T10:03:00.239Z,42
2022-10-12T10:04:45.386Z,0
2022-10-12T10:05:49.607Z,26
2022-10-12T10:07:48.875Z,31
2022-10-12T10:08:53.446Z,25
2022-10-12T10:09:57.511Z,27
2022-10-12T10:11:10.130Z,29
2022-10-12T10:12:14.570Z,49
2022-10-12T10:13:27.374Z,54
2022-10-12T10:14:31.806Z,42
2022-10-12T10:15:36.393Z,47
2022-10-12T10:16:41.142Z,50
2022-10-12T10:17:48.039Z,36
2022-10-12T10:18:52.167Z,34
2022-10-12T10:19:56.562Z,34
2022-10-12T10:21:01.050Z,36
2022-10-12T10:22:05.466Z,41
2022-10-12T10:23:09.718Z,25
2022-10-12T10:24:19.292Z,31
2022-10-12T10:25:26.475Z,43
2022-10-12T10:26:30.952Z,51
2022-10-12T10:27:45.950Z,31
2022-10-12T10:28:50.943Z,26
2022-10-12T10:30:10.895Z,46
2022-10-12T10:31:16.515Z,29
2022-10-12T10:32:21.052Z,47
2022-10-12T10:33:25.531Z,25
2022-10-12T10:34:30.235Z,25
2022-10-12T10:35:34.771Z,37
2022-10-12T10:36:39.463Z,39
2022-10-12T10:37:49.144Z,29
2022-10-12T10:38:53.787Z,29
2022-10-12T10:40:00.867Z,33
2022-10-12T10:41:05.671Z,44
2022-10-12T10:42:10.235Z,43
2022-10-12T10:43:17.374Z,38
2022-10-12T10:44:26.826Z,33
2022-10-12T10:45:31.200Z,37
2022-10-12T10:46:46.178Z,33
2022-10-12T10:47:50.762Z,43
2022-10-12T10:48:55.182Z,35
2022-10-12T10:49:59.578Z,25
2022-10-12T10:51:04.190Z,31
2022-10-12T10:52:08.566Z,32
2022-10-12T10:53:21.526Z,33
2022-10-12T10:54:26.286Z,28
2022-10-12T10:55:30.567Z,39
2022-10-12T10:56:39.840Z,29
2022-10-12T10:57:44.061Z,25
2022-10-12T10:58:54.486Z,25
2022-10-12T11:00:09.455Z,31
2022-10-12T11:01:06.016Z,32
2022-10-12T11:02:16.834Z,41
2022-10-12T11:03:31.763Z,26
2022-10-12T11:04:35.914Z,35
2022-10-12T11:05:40.610Z,41
2022-10-12T11:06:45.230Z,35
2022-10-12T11:07:49.582Z,27
2022-10-12T11:08:54.319Z,38
2022-10-12T11:10:04.347Z,36
2022-10-12T11:11:11.647Z,29
2022-10-12T11:12:16.321Z,25
2022-10-12T11:13:21.014Z,34
2022-10-12T11:14:25.835Z,35
2022-10-12T11:15:30.339Z,27
2022-10-12T11:16:34.937Z,28
2022-10-12T11:17:47.501Z,28
2022-10-12T11:18:52.081Z,25
2022-10-12T11:19:59.114Z,51
2022-10-12T11:21:13.637Z,33
2022-10-12T11:22:23.110Z,39
2022-10-12T11:23:33.462Z,33
2022-10-12T11:24:48.272Z,36
2022-10-12T11:26:03.357Z,45
2022-10-12T11:27:13.418Z,45
2022-10-12T11:28:27.918Z,29
2022-10-12T11:29:32.478Z,44
2022-10-12T11:30:37.130Z,59
2022-10-12T11:31:41.822Z,33
2022-10-12T11:32:51.490Z,37
2022-10-12T11:33:56.180Z,41
2022-10-12T11:35:00.647Z,25
2022-10-12T11:36:05.695Z,33
2022-10-12T11:37:21.061Z,28
2022-10-12T11:38:20.247Z,29
2022-10-12T11:39:29.737Z,32
2022-10-12T11:41:00.568Z,29
2022-10-12T11:41:38.472Z,30
2022-10-12T11:42:45.527Z,31
2022-10-12T11:43:50.254Z,36
2022-10-12T11:44:57.887Z,34
2022-10-12T11:46:02.387Z,25
2022-10-12T11:47:06.866Z,25
2022-10-12T11:48:16.690Z,29
2022-10-12T11:49:24.224Z,29
2022-10-12T11:50:33.938Z,44
2022-10-12T11:51:41.814Z,53
2022-10-12T11:52:50.825Z,54
2022-10-12T11:53:55.495Z,41
2022-10-12T11:55:09.570Z,48
2022-10-12T11:56:24.160Z,38
2022-10-12T11:57:34.346Z,41
2022-10-12T11:59:01.865Z,30
2022-10-12T11:59:43.230Z,38
2022-10-12T12:00:55.515Z,55
2022-10-12T12:02:07.822Z,48
2022-10-12T12:03:17.652Z,51
2022-10-12T12:04:40.926Z,43
2022-10-12T12:05:29.185Z,41
2022-10-12T12:06:33.722Z,48
2022-10-12T12:07:41.258Z,39
2022-10-12T12:08:51.117Z,44
2022-10-12T12:10:03.371Z,39
2022-10-12T12:11:18.125Z,52
2022-10-12T12:12:25.169Z,58
2022-10-12T12:13:30.003Z,63
2022-10-12T12:14:34.872Z,43
2022-10-12T12:15:47.727Z,35
2022-10-12T12:16:52.569Z,34
2022-10-12T12:18:07.520Z,39
2022-10-12T12:19:19.856Z,49
2022-10-12T12:20:34.888Z,30
2022-10-12T12:21:44.362Z,46
2022-10-12T12:22:59.025Z,27
2022-10-12T12:24:03.920Z,25
2022-10-12T12:25:08.444Z,45
2022-10-12T12:26:16.414Z,40
2022-10-12T12:27:17.349Z,62
2022-10-12T12:28:21.890Z,49
2022-10-12T12:29:26.206Z,35
2022-10-12T12:30:31.036Z,25
2022-10-12T12:31:37.866Z,25
2022-10-12T12:32:42.304Z,55
2022-10-12T12:33:52.467Z,38
2022-10-12T12:35:02.283Z,27
2022-10-12T12:36:06.750Z,34
2022-10-12T12:37:11.245Z,34
2022-10-12T12:38:15.717Z,40
2022-10-12T12:39:20.442Z,50
2022-10-12T12:40:27.996Z,30
2022-10-12T12:41:32.581Z,30
2022-10-12T12:42:47.244Z,31
2022-10-12T12:43:51.837Z,25
2022-10-12T12:44:56.290Z,27
2022-10-12T12:46:00.914Z,35
2022-10-12T12:47:26.368Z,26
2022-10-12T12:48:12.685Z,33
2022-10-12T12:49:17.416Z,30
2022-10-12T12:50:24.486Z,37
2022-10-12T12:51:31.745Z,37
2022-10-12T12:52:39.108Z,41
2022-10-12T12:53:43.393Z,49
2022-10-12T12:54:52.284Z,38
2022-10-12T12:56:03.177Z,35
2022-10-12T12:57:13.087Z,35
2022-10-12T12:58:25.193Z,38
2022-10-12T12:59:40.118Z,33
2022-10-12T13:00:54.678Z,39
2022-10-12T13:02:09.520Z,40
2022-10-12T13:03:24.155Z,44
2022-10-12T13:04:38.818Z,34
2022-10-12T13:05:53.885Z,35
2022-10-12T13:07:08.369Z,46
2022-10-12T13:08:23.254Z,47
2022-10-12T13:09:27.966Z,40
2022-10-12T13:10:37.689Z,37
2022-10-12T13:11:49.693Z,36
2022-10-12T13:13:04.717Z,42
2022-10-12T13:14:17.053Z,30
2022-10-12T13:15:26.529Z,27
2022-10-12T13:17:23.812Z,29
2022-10-12T13:17:43.509Z,34
2022-10-12T13:18:52.885Z,28
2022-10-12T13:19:57.338Z,38
2022-10-12T13:21:12.614Z,30
2022-10-12T13:22:17.621Z,26
2022-10-12T13:23:22.809Z,28
2022-10-12T13:24:27.409Z,41
2022-10-12T13:25:42.509Z,40
2022-10-12T13:26:55.157Z,32
2022-10-12T13:27:59.729Z,38
2022-10-12T13:29:04.402Z,42
2022-10-12T13:30:09.313Z,36
2022-10-12T13:31:16.464Z,34
2022-10-12T13:32:26.801Z,43
2022-10-12T13:33:36.261Z,37
2022-10-12T13:34:46.937Z,32
2022-10-12T13:35:51.194Z,38
2022-10-12T13:36:55.892Z,41
2022-10-12T13:38:00.841Z,41
2022-10-12T13:39:12.918Z,43
2022-10-12T13:40:17.736Z,39
2022-10-12T13:41:30.462Z,33
2022-10-12T13:42:35.234Z,56
2022-10-12T13:43:39.613Z,46
2022-10-12T13:44:47.281Z,51
2022-10-12T13:45:52.476Z,44
2022-10-12T13:46:57.501Z,39
2022-10-12T13:48:02.170Z,48
2022-10-12T13:49:06.934Z,41
2022-10-12T13:50:17.261Z,47
2022-10-12T13:51:22.073Z,49
2022-10-12T13:52:31.028Z,36
2022-10-12T13:53:31.366Z,41
2022-10-12T13:54:38.885Z,39
2022-10-12T13:55:45.971Z,49
2022-10-12T13:56:50.598Z,39
2022-10-12T13:58:00.769Z,37
2022-10-12T13:59:07.130Z,40
2022-10-12T14:00:13.213Z,35
2022-10-12T14:01:17.532Z,38
2022-10-12T14:02:21.890Z,43
2022-10-12T14:03:26.589Z,42
2022-10-12T14:04:39.281Z,42
2022-10-12T14:05:43.834Z,37
2022-10-12T14:06:48.474Z,53
2022-10-12T14:07:58.358Z,44
2022-10-12T14:09:08.097Z,40
2022-10-12T14:10:12.758Z,45
2022-10-12T14:11:20.261Z,53
2022-10-12T14:12:25.652Z,49
2022-10-12T14:13:29.477Z,43
2022-10-12T14:14:34.332Z,44
2022-10-12T14:15:38.901Z,46
2022-10-12T14:16:43.772Z,44
2022-10-12T14:17:48.517Z,44
2022-10-12T14:18:53.082Z,43
2022-10-12T14:19:57.582Z,51
2022-10-12T14:21:12.384Z,45
2022-10-12T14:22:16.934Z,45
2022-10-12T14:23:24.725Z,47
2022-10-12T14:24:29.438Z,50
2022-10-12T14:25:33.994Z,57
2022-10-12T14:26:38.566Z,49
2022-10-12T14:27:43.022Z,56
2022-10-12T14:28:47.863Z,50
2022-10-12T14:29:52.793Z,44
2022-10-12T14:30:57.584Z,56
2022-10-12T14:32:01.977Z,49
2022-10-12T14:33:08.885Z,56
2022-10-12T14:34:15.893Z,49
2022-10-12T14:35:23.165Z,58
2022-10-12T14:36:27.349Z,51
2022-10-12T14:37:32.281Z,49
2022-10-12T14:38:36.965Z,57
2022-10-12T14:39:42.993Z,56
2022-10-12T14:40:47.409Z,55
2022-10-12T14:41:52.104Z,60
2022-10-12T14:42:56.382Z,54
2022-10-12T14:44:06.176Z,55
2022-10-12T14:45:10.766Z,52
2022-10-12T14:46:18.450Z,52
2022-10-12T14:47:22.861Z,55
2022-10-12T14:48:30.499Z,59
2022-10-12T14:49:34.849Z,63
2022-10-12T14:50:42.281Z,61
2022-10-12T14:51:47.685Z,58
2022-10-12T14:52:52.340Z,60
2022-10-12T14:53:56.964Z,50
2022-10-12T14:55:04.297Z,54
2022-10-12T14:56:09.089Z,66
2022-10-12T14:57:14.085Z,57
2022-10-12T14:58:18.132Z,53
2022-10-12T14:59:22.621Z,64
2022-10-12T15:00:26.822Z,70
2022-10-12T15:01:31.687Z,62
2022-10-12T15:02:35.921Z,69
2022-10-12T15:03:40.753Z,71
2022-10-12T15:04:45.160Z,71
2022-10-12T15:05:49.856Z,75
2022-10-12T15:06:54.517Z,75
2022-10-12T15:07:58.832Z,73
2022-10-12T15:09:03.836Z,73
2022-10-12T15:10:07.976Z,74
2022-10-12T15:11:12.316Z,81
2022-10-12T15:12:16.977Z,85
2022-10-12T15:13:21.784Z,88
2022-10-12T15:14:26.216Z,77
2022-10-12T15:15:30.568Z,82
2022-10-12T15:16:37.760Z,94
2022-10-12T15:17:42.428Z,91
2022-10-12T15:18:48.436Z,93
2022-10-12T15:19:53.184Z,96
2022-10-12T15:20:58.075Z,101
2022-10-12T15:22:02.773Z,102
2022-10-12T15:23:07.320Z,98
2022-10-12T15:24:12.306Z,96
2022-10-12T15:25:16.599Z,96
2022-10-12T15:26:21.116Z,98
2022-10-12T15:27:25.878Z,107
2022-10-12T15:28:30.639Z,100
2022-10-12T15:29:35.439Z,97
2022-10-12T15:30:57.930Z,96
2022-10-12T15:31:47.744Z,95
2022-10-12T15:32:49.319Z,100
2022-10-12T15:33:53.827Z,100
2022-10-12T15:34:58.679Z,113
2022-10-12T15:36:03.416Z,116
2022-10-12T15:37:09.349Z,109
2022-10-12T15:38:13.052Z,109
2022-10-12T15:39:17.993Z,108
2022-10-12T15:40:22.386Z,121
2022-10-12T15:41:27.115Z,122
2022-10-12T15:42:31.660Z,125
2022-10-12T15:43:36.955Z,127
2022-10-12T15:44:41.313Z,125
2022-10-12T15:45:46.139Z,129
2022-10-12T15:46:50.523Z,130
2022-10-12T15:47:55.076Z,132
2022-10-12T15:48:59.538Z,130
2022-10-12T15:50:03.846Z,133
2022-10-12T15:51:08.613Z,134
2022-10-12T15:52:12.942Z,136
2022-10-12T15:53:17.566Z,128
2022-10-12T15:54:22.073Z,138
2022-10-12T15:55:26.482Z,136
2022-10-12T15:56:31.108Z,144
2022-10-12T15:57:36.042Z,139
2022-10-12T15:58:40.904Z,140
2022-10-12T15:59:45.219Z,143
2022-10-12T16:00:49.899Z,137
2022-10-12T16:01:54.666Z,137
2022-10-12T16:02:58.923Z,141
2022-10-12T16:04:03.974Z,137
2022-10-12T16:05:08.723Z,143
2022-10-12T16:06:19.070Z,140
2022-10-12T16:07:23.534Z,136
2022-10-12T16:08:28.346Z,137
2022-10-12T16:09:32.925Z,138
2022-10-12T16:10:37.342Z,138
2022-10-12T16:11:41.971Z,135